createdAt,value
2023-01-01T02:47:32.506Z,16.02
2023-01-01T03:47:32.361Z,15.78
2023-01-01T04:07:32.348Z,15.69
2023-01-01T04:47:32.271Z,15.54
2023-01-01T05:07:32.244Z,15.57
2023-01-01T05:27:32.204Z,15.44
2023-01-01T05:47:32.176Z,15.3
2023-01-01T06:07:32.171Z,15.22
2023-01-01T06:27:32.133Z,14.92
2023-01-01T07:27:31.992Z,14.71
2023-01-01T07:47:31.955Z,14.19
2023-01-01T08:07:31.931Z,13.69
2023-01-01T08:27:31.911Z,13.51
2023-01-01T08:47:31.869Z,13.69
2023-01-01T09:07:31.833Z,14.02
2023-01-01T09:27:31.801Z,14.28
2023-01-01T10:07:31.740Z,14.39
2023-01-01T10:47:31.698Z,14.42
2023-01-01T11:07:31.649Z,14.47
2023-01-01T11:27:31.603Z,14.55
2023-01-01T11:47:31.583Z,14.63
2023-01-01T12:07:31.577Z,14.62
2023-01-01T12:27:31.535Z,14.58
2023-01-01T12:47:31.486Z,14.56
2023-01-01T13:07:31.448Z,14.5
2023-01-01T13:27:31.407Z,14.33
2023-01-01T13:47:31.376Z,14.32
2023-01-01T14:07:50.525Z,14.31
2023-01-01T14:27:31.325Z,14.1
2023-01-01T14:47:31.281Z,14.02
2023-01-01T15:07:31.256Z,13.9
2023-01-01T15:47:31.203Z,13.61
2023-01-01T16:07:31.186Z,13.42
2023-01-01T16:27:31.125Z,13.11
2023-01-01T16:47:31.104Z,12.8
2023-01-01T17:07:31.061Z,12.53
2023-01-01T17:27:31.075Z,11.82
2023-01-01T17:47:32.935Z,11.34
2023-01-01T18:27:30.946Z,11.01
2023-01-01T18:47:30.910Z,10.86
2023-01-01T19:07:30.876Z,10.89
2023-01-01T19:47:30.813Z,11.09
2023-01-01T20:07:30.788Z,11.21
2023-01-01T20:27:30.781Z,11.25
2023-01-01T20:47:30.727Z,11.28
2023-01-01T21:27:30.723Z,11.65
2023-01-01T21:47:30.659Z,11.97
2023-01-01T22:07:56.851Z,12.38
2023-01-01T22:47:30.555Z,13.18
2023-01-01T23:27:30.480Z,13.4
2023-01-01T23:47:30.467Z,13.48
